Terminal Aerodrome Forecast
Issued by NWS

Home | Current Version | Previous Version | Text Only | Print | Product List | Glossary On
Versions: 1 2 3 4 5 6 7 8 9 10 11 12 13 14 15 16
000
FTUS44 KLIX 172339
TAFHDC
TAF
KHDC 172339Z 1800/1824 21005KT P6SM SCT035 BKN090
     FM180600 VRB03KT P6SM BKN015 OVC030
     FM181000 VRB03KT 4SM BR BKN010 OVC015
     FM181200 VRB03KT 2SM BR OVC010
     FM181600 15004KT P6SM OVC008
     FM181900 16004KT P6SM BKN015
     FM182300 15005KT P6SM BKN035=

USA.gov is the U.S. government's official web portal to all federal, state and local government web resources and services.